Time;durP1;ratioP1;P1;durP2;ratioP2;P2;SDS_P1;SDS_P2;PMS_P1;PMS_P2;Temp;Humidity;BMP_temperature;BMP_pressure;BME280_temperature;BME280_humidity;BME280_pressure;Samples;Min_cycle;Max_cycle;Signal;HPM_P1;HPM_P2
2021/04/30 00:01:33;;;;;;;21.10;18.43;;;7.20;99.90;;;;;;5055096;28;20240;-59
2021/04/30 00:04:00;;;;;;;23.37;18.47;;;7.20;99.90;;;;;;5041128;28;20214;-60
2021/04/30 00:06:27;;;;;;;23.87;19.00;;;7.20;99.90;;;;;;5047859;28;20199;-59
2021/04/30 00:08:53;;;;;;;26.23;19.70;;;7.20;99.90;;;;;;5039446;28;20881;-58
2021/04/30 00:11:19;;;;;;;20.90;18.60;;;7.20;99.90;;;;;;5043562;28;20585;-54
2021/04/30 00:13:45;;;;;;;23.07;20.13;;;7.30;99.90;;;;;;5039576;28;20187;-59
2021/04/30 00:16:11;;;;;;;23.40;19.83;;;7.30;99.90;;;;;;5041949;28;20226;-53
2021/04/30 00:18:38;;;;;;;24.00;20.03;;;7.30;99.90;;;;;;5035009;28;20207;-59
2021/04/30 00:21:05;;;;;;;28.27;21.23;;;7.30;99.90;;;;;;5048479;28;20190;-56
2021/04/30 00:23:33;;;;;;;25.73;21.90;;;7.30;99.90;;;;;;5042337;28;20188;-59
2021/04/30 00:26:02;;;;;;;24.67;20.03;;;7.30;99.90;;;;;;5020373;28;20211;-54
2021/04/30 00:28:28;;;;;;;24.20;21.27;;;7.30;99.90;;;;;;5044858;28;20199;-59
2021/04/30 00:30:55;;;;;;;25.33;21.53;;;7.30;99.90;;;;;;5030704;28;20199;-57
2021/04/30 00:33:23;;;;;;;27.87;22.23;;;7.30;99.90;;;;;;5030511;28;20230;-54
2021/04/30 00:35:49;;;;;;;26.20;22.70;;;7.30;99.90;;;;;;5050114;28;20204;-57
2021/04/30 00:38:15;;;;;;;28.97;23.03;;;7.30;99.90;;;;;;5061120;28;20202;-58
2021/04/30 00:40:42;;;;;;;24.40;20.13;;;7.30;99.90;;;;;;5064779;28;20259;-56
2021/04/30 00:43:10;;;;;;;26.90;21.93;;;7.30;99.90;;;;;;5036455;28;20543;-51
2021/04/30 00:45:36;;;;;;;30.33;22.40;;;7.30;99.90;;;;;;5035077;28;20613;-56
2021/04/30 00:48:02;;;;;;;29.73;23.37;;;7.30;99.90;;;;;;5019428;28;20221;-55
2021/04/30 00:50:30;;;;;;;27.47;21.80;;;7.30;99.90;;;;;;5042728;28;20214;-56
2021/04/30 00:52:56;;;;;;;27.20;21.93;;;7.30;99.90;;;;;;5036682;28;20211;-56
2021/04/30 00:55:22;;;;;;;28.87;22.33;;;7.40;99.90;;;;;;5026637;28;20200;-53
2021/04/30 00:57:54;;;;;;;27.97;21.93;;;7.30;99.90;;;;;;5032384;28;20259;-58
2021/04/30 01:00:22;;;;;;;26.47;21.50;;;7.30;99.90;;;;;;5053754;28;20203;-52
2021/04/30 01:02:48;;;;;;;27.97;22.17;;;7.30;99.90;;;;;;5035676;28;20623;-57
2021/04/30 01:05:16;;;;;;;25.90;21.37;;;7.30;99.90;;;;;;5050217;28;20222;-50
2021/04/30 01:07:42;;;;;;;27.57;22.03;;;7.40;99.90;;;;;;5046868;28;20249;-55
2021/04/30 01:10:09;;;;;;;28.03;22.93;;;7.30;99.90;;;;;;5043095;28;20825;-58
2021/04/30 01:12:35;;;;;;;27.90;21.53;;;7.40;99.90;;;;;;5046199;28;20211;-54
2021/04/30 01:15:04;;;;;;;25.83;21.93;;;7.40;99.90;;;;;;5040728;28;20179;-58
2021/04/30 01:17:30;;;;;;;24.23;21.10;;;7.40;99.90;;;;;;5040649;28;20207;-56
2021/04/30 01:19:57;;;;;;;27.23;21.70;;;7.40;99.90;;;;;;5032935;28;20210;-53
2021/04/30 01:22:34;;;;;;;26.07;21.40;;;7.40;99.90;;;;;;5047811;28;20779;-59
2021/04/30 01:25:00;;;;;;;28.40;22.33;;;7.40;99.90;;;;;;5051011;28;20575;-53
2021/04/30 01:27:27;;;;;;;27.43;21.67;;;7.40;99.90;;;;;;5058348;28;20194;-56
2021/04/30 01:29:53;;;;;;;27.40;22.03;;;7.40;99.90;;;;;;5064245;28;20809;-58
2021/04/30 01:32:19;;;;;;;28.43;22.23;;;7.40;99.90;;;;;;5063980;28;20225;-57
2021/04/30 01:34:45;;;;;;;28.20;22.57;;;7.40;99.90;;;;;;5035816;28;21475;-55
2021/04/30 01:37:12;;;;;;;26.40;23.27;;;7.40;99.90;;;;;;5053211;28;20203;-58
2021/04/30 01:39:39;;;;;;;31.53;23.07;;;7.40;99.90;;;;;;5057839;28;20191;-58
2021/04/30 01:42:06;;;;;;;27.43;21.87;;;7.40;99.90;;;;;;5062035;28;20684;-53
2021/04/30 01:44:32;;;;;;;32.23;22.57;;;7.40;99.90;;;;;;5051584;28;20211;-53
2021/04/30 01:46:59;;;;;;;30.10;22.97;;;7.40;99.90;;;;;;5043906;28;20603;-58
2021/04/30 01:49:26;;;;;;;29.33;22.63;;;7.40;99.90;;;;;;5041135;28;20831;-53
2021/04/30 01:51:52;;;;;;;29.53;23.53;;;7.40;99.90;;;;;;5037285;28;20548;-54
2021/04/30 01:54:18;;;;;;;27.63;22.70;;;7.40;99.90;;;;;;5045947;28;20921;-51
2021/04/30 01:56:45;;;;;;;28.50;23.40;;;7.40;99.90;;;;;;5044058;28;20195;-53
2021/04/30 01:59:12;;;;;;;26.60;21.83;;;7.40;99.90;;;;;;5040673;28;20242;-58
2021/04/30 02:01:38;;;;;;;28.50;23.80;;;7.40;99.90;;;;;;5044930;28;20211;-54
2021/04/30 02:04:07;;;;;;;29.17;23.67;;;7.40;99.90;;;;;;5042208;28;20217;-57
2021/04/30 02:06:34;;;;;;;27.60;22.47;;;7.40;99.90;;;;;;5034933;28;20210;-57
2021/04/30 02:09:00;;;;;;;27.97;22.47;;;7.40;99.90;;;;;;5050739;28;20207;-60
2021/04/30 02:11:26;;;;;;;33.87;23.93;;;7.40;99.90;;;;;;5042003;28;20204;-50
2021/04/30 02:13:53;;;;;;;29.17;23.47;;;7.40;99.90;;;;;;5052453;28;20556;-54
2021/04/30 02:16:20;;;;;;;28.70;23.13;;;7.40;99.90;;;;;;5054871;28;20879;-55
2021/04/30 02:18:46;;;;;;;28.97;23.17;;;7.40;99.90;;;;;;5063718;28;20640;-53
2021/04/30 02:21:12;;;;;;;28.80;22.67;;;7.40;99.90;;;;;;5047489;28;20190;-61
2021/04/30 02:23:38;;;;;;;26.30;22.23;;;7.40;99.90;;;;;;5054216;28;20268;-50
2021/04/30 02:26:05;;;;;;;26.07;22.17;;;7.40;99.90;;;;;;5042014;28;20689;-57
2021/04/30 02:28:31;;;;;;;25.07;21.40;;;7.30;99.90;;;;;;5043069;28;20918;-56
2021/04/30 02:30:58;;;;;;;27.50;22.63;;;7.40;99.90;;;;;;5043074;28;20303;-56
2021/04/30 02:33:25;;;;;;;25.30;21.77;;;7.40;99.90;;;;;;5041404;28;20199;-52
2021/04/30 02:35:51;;;;;;;31.07;23.20;;;7.40;99.90;;;;;;5043599;28;20199;-50
2021/04/30 02:38:19;;;;;;;24.53;21.83;;;7.40;99.90;;;;;;5033487;28;20191;-52
2021/04/30 02:40:47;;;;;;;28.83;22.13;;;7.40;99.90;;;;;;5054820;28;20190;-53
2021/04/30 02:43:16;;;;;;;29.13;21.87;;;7.40;99.90;;;;;;5053914;28;20691;-56
2021/04/30 02:45:44;;;;;;;27.57;21.40;;;7.40;99.90;;;;;;5054862;28;20240;-53
2021/04/30 02:48:13;;;;;;;26.43;21.33;;;7.40;99.90;;;;;;5059900;28;20201;-57
2021/04/30 02:50:41;;;;;;;24.97;21.03;;;7.40;99.90;;;;;;5063096;28;20194;-51
2021/04/30 02:53:07;;;;;;;26.50;19.97;;;7.40;99.90;;;;;;5050307;28;20249;-57
2021/04/30 02:55:34;;;;;;;26.47;20.43;;;7.40;99.90;;;;;;5047213;28;20210;-56
2021/04/30 02:58:01;;;;;;;24.50;19.77;;;7.40;99.90;;;;;;5062304;28;20198;-57
2021/04/30 03:00:28;;;;;;;23.93;20.80;;;7.40;99.90;;;;;;5042756;28;20225;-54
2021/04/30 03:02:55;;;;;;;22.60;19.20;;;7.40;99.90;;;;;;5062726;28;20210;-58
2021/04/30 03:05:22;;;;;;;23.30;19.03;;;7.40;99.90;;;;;;5059969;28;20297;-53
2021/04/30 03:07:48;;;;;;;24.63;19.77;;;7.40;99.90;;;;;;5063498;28;20193;-60
2021/04/30 03:10:15;;;;;;;24.07;18.33;;;7.40;99.90;;;;;;5039505;28;20194;-56
2021/04/30 03:12:42;;;;;;;25.00;18.70;;;7.40;99.90;;;;;;5049535;28;20561;-54
2021/04/30 03:15:12;;;;;;;23.30;17.90;;;7.40;99.90;;;;;;5052033;28;20191;-57
2021/04/30 03:17:39;;;;;;;20.67;16.70;;;7.40;99.90;;;;;;5057583;28;20290;-57
2021/04/30 03:20:06;;;;;;;22.03;17.23;;;7.40;99.90;;;;;;5053488;28;20199;-58
2021/04/30 03:22:33;;;;;;;23.87;18.63;;;7.40;99.90;;;;;;5062120;28;20203;-58
2021/04/30 03:24:59;;;;;;;20.87;17.23;;;7.40;99.90;;;;;;5057229;28;20228;-59
2021/04/30 03:27:27;;;;;;;19.97;16.67;;;7.40;99.90;;;;;;5030767;28;20777;-54
2021/04/30 03:29:53;;;;;;;21.07;17.33;;;7.40;99.90;;;;;;5041505;28;20281;-57
2021/04/30 03:32:19;;;;;;;21.03;18.13;;;7.40;99.90;;;;;;5038495;28;20203;-52
2021/04/30 03:34:46;;;;;;;23.40;18.83;;;7.40;99.90;;;;;;5042420;28;20192;-52
2021/04/30 03:37:12;;;;;;;24.50;18.40;;;7.40;99.90;;;;;;5038946;28;20199;-55
2021/04/30 03:39:39;;;;;;;20.50;17.67;;;7.40;99.90;;;;;;5042707;28;20267;-54
2021/04/30 03:42:06;;;;;;;22.90;17.70;;;7.40;99.90;;;;;;5033161;28;20230;-57
2021/04/30 03:44:32;;;;;;;20.43;17.20;;;7.40;99.90;;;;;;5053182;28;20218;-57
2021/04/30 03:46:58;;;;;;;21.17;17.73;;;7.40;99.90;;;;;;5059227;28;20229;-56
2021/04/30 03:49:24;;;;;;;22.20;16.93;;;7.40;99.90;;;;;;5051912;28;20190;-56
2021/04/30 03:51:51;;;;;;;21.13;16.07;;;7.40;99.90;;;;;;5063126;28;20687;-52
2021/04/30 03:54:17;;;;;;;20.27;17.00;;;7.40;99.90;;;;;;5058897;28;20239;-52
2021/04/30 03:56:44;;;;;;;22.70;17.80;;;7.40;99.90;;;;;;5043232;28;20203;-54
2021/04/30 03:59:10;;;;;;;19.40;16.87;;;7.40;99.90;;;;;;5050886;28;20186;-56
2021/04/30 04:01:36;;;;;;;20.60;16.67;;;7.40;99.90;;;;;;5047113;28;20230;-53
2021/04/30 04:04:03;;;;;;;20.90;16.67;;;7.50;99.90;;;;;;5044398;28;20198;-58
2021/04/30 04:06:29;;;;;;;19.73;16.53;;;7.50;99.90;;;;;;5040175;28;20916;-51
2021/04/30 04:08:55;;;;;;;21.93;17.00;;;7.50;99.90;;;;;;5042216;28;20196;-55
2021/04/30 04:11:21;;;;;;;23.67;18.13;;;7.50;99.90;;;;;;5039366;28;20212;-53
2021/04/30 04:13:48;;;;;;;23.73;18.70;;;7.50;99.90;;;;;;5041653;28;20613;-56
2021/04/30 04:16:14;;;;;;;21.73;19.17;;;7.50;99.90;;;;;;5056616;28;20187;-58
2021/04/30 04:18:41;;;;;;;22.83;18.40;;;7.50;99.90;;;;;;5066555;28;20198;-55
2021/04/30 04:21:07;;;;;;;23.20;19.03;;;7.50;99.90;;;;;;5060075;28;20237;-58
2021/04/30 04:23:33;;;;;;;24.57;20.57;;;7.50;99.90;;;;;;5044187;28;20194;-52
2021/04/30 04:25:59;;;;;;;24.20;19.83;;;7.50;99.90;;;;;;5045487;28;20216;-56
2021/04/30 04:28:25;;;;;;;21.53;18.63;;;7.50;99.90;;;;;;5033800;28;20818;-51
2021/04/30 04:30:52;;;;;;;24.10;19.67;;;7.40;99.90;;;;;;5054725;28;20556;-54
2021/04/30 04:33:19;;;;;;;25.07;20.90;;;7.50;99.90;;;;;;5048229;28;20210;-49
2021/04/30 04:35:45;;;;;;;22.37;19.77;;;7.50;99.90;;;;;;5058143;28;20183;-55
2021/04/30 04:38:11;;;;;;;24.87;20.33;;;7.50;99.90;;;;;;5047864;28;20203;-55
2021/04/30 04:40:37;;;;;;;28.03;21.00;;;7.50;99.90;;;;;;5045807;28;20690;-50
2021/04/30 04:43:03;;;;;;;28.47;21.80;;;7.50;99.90;;;;;;5034097;28;20230;-56
2021/04/30 04:45:30;;;;;;;27.20;22.40;;;7.50;99.90;;;;;;5052902;28;20208;-58
2021/04/30 04:47:57;;;;;;;27.00;23.00;;;7.50;99.90;;;;;;5046047;28;20191;-58
2021/04/30 04:50:23;;;;;;;28.07;22.07;;;7.50;99.90;;;;;;5042952;28;20198;-50
2021/04/30 04:52:50;;;;;;;26.43;22.67;;;7.50;99.90;;;;;;5029673;28;20227;-55
2021/04/30 04:55:17;;;;;;;27.17;21.93;;;7.40;99.90;;;;;;5049251;28;20193;-54
2021/04/30 04:57:44;;;;;;;28.60;22.67;;;7.40;99.90;;;;;;5038453;28;20211;-52
2021/04/30 05:00:11;;;;;;;28.93;23.20;;;7.40;99.90;;;;;;5051092;28;20730;-53
2021/04/30 05:02:38;;;;;;;28.17;23.60;;;7.40;99.90;;;;;;5051527;28;20226;-55
2021/04/30 05:05:06;;;;;;;28.13;22.60;;;7.40;99.90;;;;;;5047925;28;20219;-51
2021/04/30 05:07:33;;;;;;;28.03;23.23;;;7.40;99.90;;;;;;5038272;28;20665;-58
2021/04/30 05:09:59;;;;;;;28.00;23.77;;;7.40;99.90;;;;;;5043625;28;20213;-55
2021/04/30 05:12:25;;;;;;;28.27;22.73;;;7.40;99.90;;;;;;5046284;28;20276;-57
2021/04/30 05:14:52;;;;;;;26.87;21.80;;;7.40;99.90;;;;;;5029643;28;20190;-51
2021/04/30 05:17:18;;;;;;;26.23;22.20;;;7.30;99.90;;;;;;5053787;28;20253;-57
2021/04/30 05:19:44;;;;;;;25.37;21.30;;;7.40;99.90;;;;;;5042120;28;20218;-56
2021/04/30 05:22:12;;;;;;;25.90;22.67;;;7.40;99.90;;;;;;5045310;28;20211;-54
2021/04/30 05:24:41;;;;;;;28.73;22.20;;;7.40;99.90;;;;;;5035369;28;20211;-57
2021/04/30 05:27:09;;;;;;;29.10;22.07;;;7.50;99.90;;;;;;5045310;28;20203;-56
2021/04/30 05:29:38;;;;;;;24.43;21.17;;;7.50;99.90;;;;;;5021987;28;20200;-56
2021/04/30 05:32:05;;;;;;;26.47;22.37;;;7.50;99.90;;;;;;5052350;28;20596;-57
2021/04/30 05:34:31;;;;;;;28.83;21.97;;;7.50;99.90;;;;;;5050273;28;20206;-54
2021/04/30 05:36:57;;;;;;;26.33;21.53;;;7.50;99.90;;;;;;5045350;28;20204;-56
2021/04/30 05:39:24;;;;;;;27.60;21.97;;;7.50;99.90;;;;;;5036808;28;20616;-57
2021/04/30 05:41:50;;;;;;;23.40;20.83;;;7.60;99.90;;;;;;5042407;28;20999;-53
2021/04/30 05:44:16;;;;;;;27.90;22.53;;;7.60;99.90;;;;;;5049605;28;20228;-55
2021/04/30 05:46:42;;;;;;;25.37;21.73;;;7.60;99.90;;;;;;5037626;28;20268;-51
2021/04/30 05:49:08;;;;;;;25.00;21.13;;;7.60;99.90;;;;;;5052478;28;20198;-54
2021/04/30 05:51:34;;;;;;;27.30;22.53;;;7.60;99.90;;;;;;5052115;28;20272;-55
2021/04/30 05:54:01;;;;;;;26.13;20.03;;;7.70;99.90;;;;;;5062534;28;20195;-51
2021/04/30 05:56:28;;;;;;;28.40;21.67;;;7.70;99.90;;;;;;5041551;28;20203;-56
2021/04/30 05:58:54;;;;;;;26.97;21.83;;;7.70;99.90;;;;;;5027032;28;20184;-57
2021/04/30 06:01:21;;;;;;;29.43;22.10;;;7.70;99.90;;;;;;5025177;28;20215;-56
2021/04/30 06:03:47;;;;;;;24.53;21.23;;;7.70;99.90;;;;;;5055875;28;20568;-56
2021/04/30 06:06:14;;;;;;;28.77;22.13;;;7.80;99.90;;;;;;5049708;28;20484;-55
2021/04/30 06:08:40;;;;;;;27.50;22.20;;;7.80;99.90;;;;;;5061558;28;20632;-53
2021/04/30 06:11:06;;;;;;;26.17;22.00;;;7.90;99.90;;;;;;5046286;28;20200;-55
2021/04/30 06:13:33;;;;;;;24.07;20.47;;;7.90;99.90;;;;;;5044368;28;20734;-57
2021/04/30 06:15:59;;;;;;;24.33;20.93;;;7.90;99.90;;;;;;5034089;28;20203;-58
2021/04/30 06:18:25;;;;;;;26.17;21.23;;;7.90;99.90;;;;;;5054976;28;20201;-59
2021/04/30 06:20:52;;;;;;;26.40;21.17;;;8.00;99.90;;;;;;5060684;28;20682;-55
2021/04/30 06:23:18;;;;;;;22.27;19.87;;;8.10;99.90;;;;;;5050033;28;20195;-54
2021/04/30 06:25:44;;;;;;;22.53;20.13;;;8.00;99.90;;;;;;5050073;28;20267;-49
2021/04/30 06:28:10;;;;;;;22.77;19.97;;;8.10;99.90;;;;;;5040239;28;20266;-53
2021/04/30 06:30:37;;;;;;;25.63;20.10;;;8.10;99.90;;;;;;5036229;28;20718;-57
2021/04/30 06:33:03;;;;;;;24.47;20.40;;;8.20;99.90;;;;;;5052674;28;20687;-57
2021/04/30 06:35:30;;;;;;;26.07;20.40;;;8.30;99.90;;;;;;5063201;28;20190;-56
2021/04/30 06:37:56;;;;;;;24.67;20.13;;;8.30;99.90;;;;;;5062090;28;20194;-57
2021/04/30 06:40:22;;;;;;;21.70;18.63;;;8.50;99.90;;;;;;5044244;28;20206;-57
2021/04/30 06:42:48;;;;;;;21.10;18.77;;;8.50;99.90;;;;;;5044146;28;20227;-54
2021/04/30 06:45:14;;;;;;;22.40;17.60;;;8.50;99.90;;;;;;5047693;28;20203;-54
2021/04/30 06:47:41;;;;;;;21.73;18.60;;;8.60;99.90;;;;;;5043945;28;20215;-53
2021/04/30 06:50:08;;;;;;;21.83;17.93;;;8.60;99.90;;;;;;5052389;28;20199;-53
2021/04/30 06:52:34;;;;;;;17.97;16.00;;;8.70;99.90;;;;;;5063857;28;20211;-55
2021/04/30 06:55:01;;;;;;;19.10;17.10;;;8.70;99.90;;;;;;5060847;28;20346;-57
2021/04/30 06:57:27;;;;;;;20.83;18.47;;;8.80;99.90;;;;;;5045213;28;20858;-56
2021/04/30 06:59:53;;;;;;;19.87;16.47;;;8.90;99.90;;;;;;5042038;28;20199;-58
2021/04/30 07:02:19;;;;;;;19.33;16.97;;;8.90;99.90;;;;;;5028981;28;20253;-56
2021/04/30 07:04:47;;;;;;;21.00;16.33;;;8.90;99.90;;;;;;5053338;28;20229;-55
2021/04/30 07:07:14;;;;;;;16.80;14.90;;;9.00;99.90;;;;;;5040078;28;20238;-54
2021/04/30 07:09:40;;;;;;;16.87;14.67;;;9.00;99.90;;;;;;5043409;28;20561;-55
2021/04/30 07:12:07;;;;;;;18.07;14.77;;;9.00;99.90;;;;;;5034033;28;20215;-52
2021/04/30 07:14:33;;;;;;;16.60;14.80;;;9.00;99.90;;;;;;5051209;28;20188;-56
2021/04/30 07:17:00;;;;;;;15.77;14.20;;;9.00;99.90;;;;;;5017586;28;20255;-56
2021/04/30 07:19:26;;;;;;;19.37;15.23;;;9.00;99.90;;;;;;5030701;28;20817;-49
2021/04/30 07:21:53;;;;;;;16.43;14.70;;;9.00;99.90;;;;;;5036445;28;20219;-55
2021/04/30 07:24:19;;;;;;;16.23;14.57;;;9.00;99.90;;;;;;5049088;28;20191;-52
2021/04/30 07:26:45;;;;;;;14.90;13.40;;;9.00;99.90;;;;;;5061304;28;20202;-52
2021/04/30 07:29:12;;;;;;;17.10;14.63;;;9.10;99.90;;;;;;5042176;28;20195;-51
2021/04/30 07:31:38;;;;;;;16.47;14.73;;;9.10;99.90;;;;;;5054031;28;20789;-48
2021/04/30 07:34:04;;;;;;;14.17;12.70;;;9.10;99.90;;;;;;5037586;28;20191;-57
2021/04/30 07:36:30;;;;;;;14.13;12.73;;;9.20;99.90;;;;;;5054346;28;20190;-53
2021/04/30 07:38:57;;;;;;;15.13;13.53;;;9.20;99.90;;;;;;5039967;28;20214;-59
2021/04/30 07:41:24;;;;;;;14.37;12.93;;;9.20;99.90;;;;;;5041278;28;20210;-48
2021/04/30 07:43:50;;;;;;;14.40;12.90;;;9.10;99.90;;;;;;5023439;28;20661;-56
2021/04/30 07:46:17;;;;;;;14.73;13.17;;;9.10;99.90;;;;;;5058081;28;20214;-49
2021/04/30 07:48:43;;;;;;;17.13;13.33;;;9.20;99.90;;;;;;5057536;28;20194;-51
2021/04/30 07:51:09;;;;;;;14.10;12.70;;;9.20;99.90;;;;;;5039503;28;20285;-51
2021/04/30 07:53:35;;;;;;;14.30;12.73;;;9.20;99.90;;;;;;5044076;28;20253;-48
2021/04/30 07:56:03;;;;;;;14.43;12.30;;;9.20;99.90;;;;;;5060083;28;20259;-52
2021/04/30 07:58:29;;;;;;;13.57;12.20;;;9.30;99.90;;;;;;5058656;28;20277;-53
2021/04/30 08:00:58;;;;;;;12.90;11.60;;;9.30;99.90;;;;;;5048748;28;20209;-51
2021/04/30 08:03:25;;;;;;;12.13;10.93;;;9.40;99.90;;;;;;5060697;28;20269;-48
2021/04/30 08:05:52;;;;;;;14.37;11.00;;;9.40;99.90;;;;;;5039024;28;20218;-50
2021/04/30 08:08:18;;;;;;;11.90;10.43;;;9.50;99.90;;;;;;5052842;28;20545;-53
2021/04/30 08:10:45;;;;;;;11.63;10.53;;;9.60;99.90;;;;;;5037776;28;20199;-48
2021/04/30 08:13:12;;;;;;;11.70;10.60;;;9.60;99.90;;;;;;5062455;28;20214;-48
2021/04/30 08:15:38;;;;;;;11.67;10.60;;;9.70;99.90;;;;;;5040899;28;20588;-48
2021/04/30 08:18:04;;;;;;;10.37;9.47;;;9.70;99.90;;;;;;5057957;28;20191;-48
2021/04/30 08:20:31;;;;;;;10.73;8.77;;;9.80;99.90;;;;;;5033385;28;20254;-51
2021/04/30 08:22:57;;;;;;;11.13;10.10;;;9.80;99.90;;;;;;5067795;28;20206;-50
2021/04/30 08:25:23;;;;;;;10.10;9.10;;;9.80;99.90;;;;;;5049860;28;20576;-54
2021/04/30 08:27:49;;;;;;;9.40;8.50;;;9.90;99.90;;;;;;5044212;28;20328;-53
2021/04/30 08:30:17;;;;;;;9.77;8.87;;;9.90;99.90;;;;;;5042058;28;20203;-52
2021/04/30 08:32:43;;;;;;;10.10;9.20;;;9.90;99.90;;;;;;5052392;28;20203;-53
2021/04/30 08:35:10;;;;;;;10.90;9.27;;;9.90;99.90;;;;;;5039064;28;20202;-52
2021/04/30 08:37:37;;;;;;;10.27;9.27;;;10.00;99.90;;;;;;5053601;28;20195;-51
2021/04/30 08:40:05;;;;;;;10.10;9.10;;;10.00;99.90;;;;;;5057373;28;20207;-48
2021/04/30 08:42:32;;;;;;;10.43;9.30;;;10.00;99.90;;;;;;5041615;28;20557;-53
2021/04/30 08:44:58;;;;;;;10.27;9.37;;;10.00;99.90;;;;;;5061870;28;20217;-49
2021/04/30 08:47:25;;;;;;;10.10;9.10;;;10.10;99.90;;;;;;5046588;28;20198;-55
2021/04/30 08:49:54;;;;;;;10.67;9.57;;;10.10;99.90;;;;;;5054719;28;20275;-49
2021/04/30 08:52:20;;;;;;;10.67;9.70;;;10.10;99.90;;;;;;5042509;28;20226;-55
2021/04/30 08:54:50;;;;;;;11.00;8.63;;;10.20;99.90;;;;;;5054892;28;20186;-51
2021/04/30 08:57:21;;;;;;;9.53;8.70;;;10.20;99.90;;;;;;5053232;28;20253;-56
2021/04/30 08:59:47;;;;;;;8.93;8.07;;;10.30;99.90;;;;;;5055095;28;20953;-52
2021/04/30 09:02:14;;;;;;;9.70;8.90;;;10.40;99.90;;;;;;5046210;28;20708;-51
2021/04/30 09:04:41;;;;;;;9.43;8.53;;;10.50;99.90;;;;;;5049779;28;20911;-53
2021/04/30 09:07:15;;;;;;;8.30;7.40;;;10.70;99.90;;;;;;5047320;28;20589;-55
2021/04/30 09:10:04;;;;;;;8.73;7.93;;;10.80;99.90;;;;;;5058133;28;20209;-50
2021/04/30 09:12:30;;;;;;;8.77;8.13;;;11.00;99.90;;;;;;5057348;28;20251;-52
2021/04/30 09:14:56;;;;;;;9.40;8.50;;;11.00;99.90;;;;;;5047096;28;20195;-51
2021/04/30 09:17:23;;;;;;;8.90;7.60;;;11.00;99.90;;;;;;5044230;28;20292;-52
2021/04/30 09:19:51;;;;;;;8.53;7.73;;;11.00;99.90;;;;;;5040934;28;20207;-49
2021/04/30 09:22:19;;;;;;;9.70;8.70;;;11.00;99.90;;;;;;5031449;28;20227;-50
2021/04/30 09:24:54;;;;;;;8.87;8.07;;;10.90;99.90;;;;;;5052935;28;20270;-55
2021/04/30 09:27:31;;;;;;;9.50;8.47;;;10.90;99.90;;;;;;5034516;28;20222;-56
2021/04/30 09:30:26;;;;;;;9.13;8.23;;;10.90;99.90;;;;;;5039262;28;20214;-53
2021/04/30 09:33:07;;;;;;;8.93;8.13;;;11.00;99.90;;;;;;5041140;28;20211;-51
2021/04/30 09:35:35;;;;;;;9.10;8.23;;;11.20;99.90;;;;;;5041685;28;20219;-51
2021/04/30 09:38:18;;;;;;;9.50;8.60;;;11.20;99.90;;;;;;5031191;28;20203;-50
2021/04/30 09:40:45;;;;;;;9.60;8.70;;;11.20;99.90;;;;;;5032545;28;20898;-50
2021/04/30 09:43:12;;;;;;;9.13;8.33;;;11.10;99.90;;;;;;5038438;28;20774;-54
2021/04/30 09:45:39;;;;;;;8.57;7.77;;;11.00;99.90;;;;;;5038801;28;20894;-54
2021/04/30 09:48:07;;;;;;;9.30;8.47;;;11.00;99.90;;;;;;5057378;28;20197;-54
2021/04/30 09:50:34;;;;;;;9.77;8.83;;;11.00;99.90;;;;;;5032583;28;20207;-49
2021/04/30 09:53:03;;;;;;;9.67;8.77;;;11.10;99.90;;;;;;5035708;28;20211;-52
2021/04/30 09:55:41;;;;;;;9.23;8.47;;;11.10;99.90;;;;;;5046657;28;20243;-56
2021/04/30 09:58:15;;;;;;;9.50;8.50;;;11.10;99.90;;;;;;5026141;28;20286;-53
2021/04/30 10:00:43;;;;;;;8.50;7.70;;;11.10;99.90;;;;;;5044341;28;20697;-49
2021/04/30 10:03:14;;;;;;;9.70;8.00;;;11.10;99.90;;;;;;5052385;28;20246;-54
2021/04/30 10:06:00;;;;;;;7.37;6.67;;;11.10;99.90;;;;;;5046909;28;20227;-52
2021/04/30 10:08:26;;;;;;;8.80;7.90;;;11.20;99.90;;;;;;5037623;28;20203;-51
2021/04/30 10:10:52;;;;;;;9.60;8.13;;;11.30;99.90;;;;;;5050022;28;20206;-52
2021/04/30 10:13:18;;;;;;;8.77;7.90;;;11.40;99.90;;;;;;5040832;28;20211;-48
2021/04/30 10:15:44;;;;;;;8.70;7.80;;;11.20;99.90;;;;;;5044564;28;20193;-48
2021/04/30 10:18:13;;;;;;;9.27;8.00;;;11.20;99.90;;;;;;5043641;28;20226;-50
2021/04/30 10:20:39;;;;;;;7.63;6.93;;;11.30;99.90;;;;;;5043694;28;20257;-52
2021/04/30 10:23:12;;;;;;;7.07;6.47;;;11.50;99.90;;;;;;5033449;28;20220;-54
2021/04/30 10:25:40;;;;;;;7.33;6.73;;;11.80;99.90;;;;;;5034432;28;20584;-55
2021/04/30 10:28:08;;;;;;;8.53;6.83;;;12.00;99.90;;;;;;5064239;28;20241;-53
2021/04/30 10:30:38;;;;;;;7.73;6.87;;;12.10;99.90;;;;;;5034644;28;20622;-53
2021/04/30 10:33:10;;;;;;;7.33;6.73;;;12.10;99.90;;;;;;5036425;28;20222;-53
2021/04/30 10:35:44;;;;;;;8.23;6.30;;;12.20;99.90;;;;;;5039114;28;20264;-52
2021/04/30 10:38:15;;;;;;;7.23;6.63;;;12.20;99.90;;;;;;5037953;28;20211;-47
2021/04/30 10:40:52;;;;;;;7.23;6.63;;;12.30;99.90;;;;;;5015556;28;20866;-56
2021/04/30 10:43:20;;;;;;;7.73;6.57;;;12.20;99.90;;;;;;5055186;28;20218;-50
2021/04/30 10:46:02;;;;;;;7.13;6.63;;;12.00;99.90;;;;;;5060533;28;20218;-54
2021/04/30 10:48:30;;;;;;;5.90;5.33;;;11.90;99.90;;;;;;5024387;28;20220;-51
2021/04/30 10:51:09;;;;;;;7.03;6.10;;;11.80;99.90;;;;;;5028887;28;20449;-50
2021/04/30 10:53:35;;;;;;;6.30;5.77;;;11.70;99.90;;;;;;5048021;28;20198;-53
2021/04/30 10:56:26;;;;;;;6.60;6.00;;;11.60;99.90;;;;;;5022923;28;20196;-52
2021/04/30 10:58:52;;;;;;;6.23;5.73;;;11.70;99.90;;;;;;5023134;28;20607;-55
2021/04/30 11:01:27;;;;;;;6.80;6.20;;;11.70;99.90;;;;;;5048995;28;20199;-47
2021/04/30 11:04:13;;;;;;;6.30;5.77;;;11.70;99.90;;;;;;5039909;28;20225;-55
2021/04/30 11:06:41;;;;;;;6.07;5.57;;;11.80;99.90;;;;;;5038964;28;20230;-56
2021/04/30 11:09:13;;;;;;;6.53;6.00;;;11.80;99.90;;;;;;5036181;28;23195;-49
2021/04/30 11:11:41;;;;;;;7.07;5.70;;;11.90;99.90;;;;;;5017710;28;20237;-53
2021/04/30 11:14:29;;;;;;;7.07;6.40;;;11.90;99.90;;;;;;5055849;28;20209;-54
2021/04/30 11:16:57;;;;;;;5.80;5.40;;;12.00;99.90;;;;;;5061729;28;20191;-56
2021/04/30 11:19:25;;;;;;;5.40;5.00;;;12.10;99.90;;;;;;5065809;28;20277;-55
2021/04/30 11:21:53;;;;;;;5.33;5.00;;;12.20;99.90;;;;;;5057598;28;20213;-53
2021/04/30 11:24:35;;;;;;;5.70;5.30;;;12.40;99.90;;;;;;5032289;28;20203;-50
2021/04/30 11:27:32;;;;;;;6.07;4.83;;;12.50;99.90;;;;;;5026666;28;20268;-54
2021/04/30 11:30:24;;;;;;;5.37;4.97;;;12.60;99.90;;;;;;5045366;28;20270;-52
2021/04/30 11:32:56;;;;;;;5.50;5.00;;;12.60;99.90;;;;;;5028639;28;20216;-56
2021/04/30 11:35:24;;;;;;;5.10;4.70;;;12.70;99.90;;;;;;5026466;28;20196;-49
2021/04/30 11:37:50;;;;;;;4.50;4.20;;;12.70;99.90;;;;;;5020182;28;20200;-56
2021/04/30 11:40:18;;;;;;;5.00;4.70;;;12.80;99.90;;;;;;5037658;28;20218;-50
2021/04/30 11:42:44;;;;;;;5.60;5.03;;;12.70;99.90;;;;;;5036860;28;20230;-54
2021/04/30 11:45:11;;;;;;;6.13;5.53;;;12.70;99.90;;;;;;5053054;28;20214;-54
2021/04/30 11:47:39;;;;;;;7.57;5.10;;;12.60;99.90;;;;;;5065182;28;20202;-54
2021/04/30 11:50:09;;;;;;;5.90;5.50;;;12.50;99.90;;;;;;5062194;28;20910;-48
2021/04/30 11:52:38;;;;;;;6.97;6.30;;;12.40;99.90;;;;;;5062957;28;20224;-51
2021/04/30 11:55:07;;;;;;;5.80;5.00;;;12.40;99.90;;;;;;5026587;28;20199;-50
2021/04/30 11:57:35;;;;;;;5.73;5.27;;;12.30;99.90;;;;;;5038695;28;20214;-48
2021/04/30 12:00:01;;;;;;;6.00;5.47;;;12.40;99.90;;;;;;5033414;28;20224;-56
2021/04/30 12:02:29;;;;;;;5.80;5.27;;;12.40;99.90;;;;;;5036727;28;20281;-49
2021/04/30 12:04:56;;;;;;;5.37;4.93;;;12.30;99.90;;;;;;5046427;28;20242;-51
2021/04/30 12:07:24;;;;;;;6.20;5.70;;;12.30;99.90;;;;;;5042696;28;21003;-48
2021/04/30 12:09:52;;;;;;;6.23;5.63;;;12.30;99.90;;;;;;5036732;28;20203;-48
2021/04/30 12:12:23;;;;;;;6.23;5.63;;;12.40;99.90;;;;;;5022509;28;20219;-52
2021/04/30 12:14:56;;;;;;;5.80;5.30;;;12.40;99.90;;;;;;5053713;28;20200;-49
2021/04/30 12:17:40;;;;;;;6.00;5.40;;;12.40;99.90;;;;;;5033477;28;20298;-53
2021/04/30 12:20:16;;;;;;;5.50;5.10;;;12.50;99.90;;;;;;5033958;28;20199;-51
2021/04/30 12:22:49;;;;;;;6.50;5.90;;;12.60;99.90;;;;;;5034943;28;20653;-54
2021/04/30 12:25:22;;;;;;;5.63;5.13;;;12.60;99.90;;;;;;5029938;28;20581;-50
2021/04/30 12:27:48;;;;;;;6.30;5.70;;;12.60;99.90;;;;;;5036210;28;20838;-48
2021/04/30 12:30:26;;;;;;;6.07;5.57;;;12.90;99.90;;;;;;5047910;28;20329;-48
2021/04/30 12:32:52;;;;;;;5.47;4.97;;;12.80;99.90;;;;;;5058720;28;20261;-50
2021/04/30 12:35:18;;;;;;;6.17;5.53;;;12.70;99.90;;;;;;5063820;28;20566;-50
2021/04/30 12:37:45;;;;;;;5.53;5.13;;;12.70;99.90;;;;;;5040803;28;20207;-52
2021/04/30 12:40:12;;;;;;;5.70;5.30;;;12.70;99.90;;;;;;5034731;28;20533;-53
2021/04/30 12:42:46;;;;;;;6.40;5.90;;;12.70;99.90;;;;;;5039219;28;20227;-56
2021/04/30 12:45:14;;;;;;;6.40;5.80;;;12.80;99.90;;;;;;5016252;28;20234;-52